PWSweather.com
Personal Weather Stations
Station Observations
WHITEHV
Whitehorse, YK y1a5w5

Whitehorse, YK y1a5w5

Lat: 60.829, Lon: -135.194

Elevation: 2165

Station Type: DAVIS VANTAGE PRO 2

Latest ConditionsUpdated 9:03:00 PM PDT Saturday, Jul 4, 2015
Currently Today's Max Today's Min Today's Average
Temperature 69.3°F20.7°C 74.2°F23.4°C 44.2°F6.8°C 59.6°F15.3°C
Dew Point 47.6°F8.7°C 54.0°F12.2°C 41.5°F5.3°C 48.3°F9.1°C
Winds 1.2 mph SSE1.9 kmh SSE 3.5 mph SSE5.6 kmh SSE - 0.5 mph 0.8 kmh
Wind Gusts 3.5 mph5.6 kmh 5.8 mph9.3 kmh - -
Humidity 46% 93% 44% 70%
Pressure 30.17 in1021.7 mb 30.32 in1026.8 mb 30.17 in1021.7 mb -
Precipitation - 0.01 in0.3 mm - -
Hour Temp Dew Point Humidity Winds Wind Gusts Pressure Precip Precip Rate Daily Precip Total
09:03 PM 69.3°F20.7°C 47.6°F8.7°C 46% 1.2 mph SSE1.9 kmh SSE 3.5 mph5.6 kmh 30.17 in1021.7 mb - 0.00 in0.0 mm 0.01 in0.3 mm
08:03 PM 70.7°F21.5°C 48.3°F9.1°C 45% 1.2 mph SE1.9 kmh SE 2.3 mph3.7 kmh 30.17 in1021.7 mb - 0.00 in0.0 mm 0.01 in0.3 mm
07:03 PM 71.5°F21.9°C 49.6°F9.8°C 46% Calm Calm 2.3 mph3.7 kmh 30.18 in1022.0 mb - 0.00 in0.0 mm 0.01 in0.3 mm
06:03 PM 71.6°F22.0°C 49.1°F9.5°C 45% 3.5 mph SSE5.6 kmh SSE 5.8 mph9.3 kmh 30.19 in1022.4 mb - 0.00 in0.0 mm 0.01 in0.3 mm
05:02 PM 71.6°F22.0°C 50.3°F10.2°C 47% Calm Calm 1.2 mph1.9 kmh 30.22 in1023.4 mb - 0.00 in0.0 mm 0.01 in0.3 mm
04:02 PM 74.2°F23.4°C 50.9°F10.5°C 44% 1.2 mph SSE1.9 kmh SSE 3.5 mph5.6 kmh 30.23 in1023.7 mb - 0.00 in0.0 mm 0.01 in0.3 mm
03:03 PM 70.8°F21.6°C 50.7°F10.4°C 49% 2.3 mph SE3.7 kmh SE 3.5 mph5.6 kmh 30.25 in1024.4 mb - 0.00 in0.0 mm 0.01 in0.3 mm
02:03 PM 71.6°F22.0°C 53.0°F11.7°C 52% Calm Calm 1.2 mph1.9 kmh 30.27 in1025.1 mb - 0.00 in0.0 mm 0.01 in0.3 mm
01:02 PM 69.0°F20.6°C 51.7°F10.9°C 54% 1.2 mph NNE1.9 kmh NNE 2.3 mph3.7 kmh 30.29 in1025.7 mb - 0.00 in0.0 mm 0.01 in0.3 mm
12:02 PM 64.8°F18.2°C 54.0°F12.2°C 68% Calm Calm -- 30.30 in1026.1 mb - 0.00 in0.0 mm 0.01 in0.3 mm
09:03 AM 53.5°F11.9°C 51.5°F10.8°C 93% Calm Calm -- 30.32 in1026.8 mb - 0.00 in0.0 mm 0.01 in0.3 mm
08:03 AM 47.4°F8.6°C 45.2°F7.3°C 92% Calm Calm -- 30.32 in1026.8 mb - 0.00 in0.0 mm 0.01 in0.3 mm
07:03 AM 45.7°F7.6°C 43.5°F6.4°C 92% Calm Calm -- 30.32 in1026.8 mb - 0.00 in0.0 mm 0.01 in0.3 mm
06:03 AM 44.2°F6.8°C 41.5°F5.3°C 90% Calm Calm -- 30.32 in1026.8 mb - 0.00 in0.0 mm 0.01 in0.3 mm
05:02 AM 44.8°F7.1°C 41.8°F5.4°C 89% Calm Calm -- 30.31 in1026.4 mb - 0.00 in0.0 mm 0.01 in0.3 mm
04:03 AM 46.9°F8.3°C 43.8°F6.6°C 89% Calm Calm -- 30.30 in1026.1 mb - 0.00 in0.0 mm 0.01 in0.3 mm
03:03 AM 49.4°F9.7°C 46.6°F8.1°C 90% Calm Calm -- 30.29 in1025.7 mb - 0.00 in0.0 mm 0.01 in0.3 mm
02:02 AM 51.1°F10.6°C 48.3°F9.1°C 90% Calm Calm -- 30.28 in1025.4 mb - 0.01 in0.3 mm 0.01 in0.3 mm
01:03 AM 51.6°F10.9°C 48.8°F9.3°C 90% Calm Calm -- 30.27 in1025.1 mb - 0.00 in0.0 mm 0.00 in0.0 mm
12:03 AM 51.9°F11.1°C 49.1°F9.5°C 90% Calm Calm -- 30.27 in1025.1 mb - 0.00 in0.0 mm 0.00 in0.0 mm